createdAt,value
2019-04-14T00:00:57.848Z,94.46
2019-04-14T00:01:58.790Z,94.46
2019-04-14T00:02:57.921Z,94.46
2019-04-14T00:03:58.723Z,95.31
2019-04-14T00:04:57.990Z,95.21
2019-04-14T00:05:58.335Z,95.26
2019-04-14T00:06:59.136Z,94.56
2019-04-14T00:07:58.178Z,94.18
2019-04-14T00:08:58.594Z,94.27
2019-04-14T00:09:58.520Z,94.46
2019-04-14T00:10:59.308Z,94.41
2019-04-14T00:11:59.073Z,94.46
2019-04-14T00:12:58.270Z,94.56
2019-04-14T00:13:58.862Z,94.65
2019-04-14T00:14:58.338Z,94.46
2019-04-14T00:15:58.896Z,94.79
2019-04-14T00:16:59.554Z,94.74
2019-04-14T00:17:58.969Z,94.46
2019-04-14T00:18:58.485Z,94.74
2019-04-14T00:19:58.832Z,94.46
2019-04-14T00:20:59.774Z,94.46
2019-04-14T00:21:58.705Z,94.56
2019-04-14T00:22:59.699Z,94.74
2019-04-14T00:23:58.889Z,94.70
2019-04-14T00:24:59.745Z,94.51
2019-04-14T00:25:58.724Z,94.32
2019-04-14T00:26:59.544Z,94.22
2019-04-14T00:27:58.795Z,94.41
2019-04-14T00:29:00.046Z,94.60
2019-04-14T00:29:59.031Z,94.60
2019-04-14T00:30:59.871Z,95.26
2019-04-14T00:31:58.932Z,95.07
2019-04-14T00:32:59.462Z,94.79
2019-04-14T00:33:59.004Z,95.03
2019-04-14T00:34:59.403Z,95.21
2019-04-14T00:36:00.132Z,95.12
2019-04-14T00:36:59.106Z,95.17
2019-04-14T00:37:59.817Z,95.17
2019-04-14T00:38:59.176Z,94.79
2019-04-14T00:39:59.743Z,95.17
2019-04-14T00:40:59.255Z,95.07
2019-04-14T00:42:02.135Z,94.89
2019-04-14T00:43:00.492Z,94.89
2019-04-14T00:43:59.356Z,95.17
2019-04-14T00:45:00.461Z,95.07
2019-04-14T00:46:00.998Z,95.17
2019-04-14T00:47:00.541Z,94.89
2019-04-14T00:48:06.406Z,94.79
2019-04-14T00:49:00.525Z,94.98
2019-04-14T00:49:59.585Z,94.51
2019-04-14T00:51:00.583Z,95.17
2019-04-14T00:51:59.661Z,95.07
2019-04-14T00:52:59.665Z,94.98
2019-04-14T00:54:00.222Z,94.79
2019-04-14T00:55:00.926Z,94.41
2019-04-14T00:55:59.819Z,95.17
2019-04-14T00:57:00.883Z,95.26
2019-04-14T00:57:59.849Z,95.17
2019-04-14T00:59:00.584Z,94.60
2019-04-14T00:59:59.918Z,94.41
2019-04-14T01:01:00.462Z,94.32
2019-04-14T01:02:01.234Z,94.98
2019-04-14T01:03:00.407Z,94.60
2019-04-14T01:04:01.173Z,94.41
2019-04-14T01:05:00.212Z,94.60
2019-04-14T01:06:01.166Z,94.41
2019-04-14T01:07:00.199Z,94.41
2019-04-14T01:08:00.955Z,94.22
2019-04-14T01:09:00.248Z,94.51
2019-04-14T01:10:00.261Z,94.13
2019-04-14T01:11:01.044Z,94.41
2019-04-14T01:12:00.329Z,94.22
2019-04-14T01:13:00.635Z,94.41
2019-04-14T01:14:01.495Z,94.41
2019-04-14T01:15:00.739Z,94.60
2019-04-14T01:16:07.050Z,94.32
2019-04-14T01:17:00.517Z,94.51
2019-04-14T01:18:01.501Z,94.22
2019-04-14T01:19:00.571Z,94.41
2019-04-14T01:20:01.464Z,94.51
2019-04-14T01:21:00.640Z,94.51
2019-04-14T01:22:01.032Z,94.51
2019-04-14T01:23:01.957Z,94.41
2019-04-14T01:24:01.037Z,94.41
2019-04-14T01:25:02.206Z,94.41
2019-04-14T01:26:00.867Z,94.41
2019-04-14T01:27:01.699Z,94.32
2019-04-14T01:28:00.884Z,94.41
2019-04-14T01:29:01.471Z,94.41
2019-04-14T01:30:00.952Z,94.51
2019-04-14T01:31:01.223Z,94.79
2019-04-14T01:32:02.233Z,94.98
2019-04-14T01:33:01.151Z,94.70
2019-04-14T01:34:01.975Z,94.32
2019-04-14T01:35:01.128Z,94.60
2019-04-14T01:36:01.763Z,94.41
2019-04-14T01:37:01.203Z,94.51
2019-04-14T01:38:01.618Z,94.60
2019-04-14T01:39:02.457Z,94.70
2019-04-14T01:40:01.299Z,95.07
2019-04-14T01:41:02.130Z,94.41
2019-04-14T01:42:01.373Z,94.41
2019-04-14T01:43:01.701Z,94.32
2019-04-14T01:44:02.459Z,94.41
2019-04-14T01:45:01.481Z,94.79
2019-04-14T01:46:10.714Z,94.79
2019-04-14T01:47:01.549Z,94.41
2019-04-14T01:48:01.778Z,94.41
2019-04-14T01:49:02.819Z,94.51
2019-04-14T01:50:01.834Z,94.51
2019-04-14T01:51:02.691Z,95.07
2019-04-14T01:52:01.716Z,95.17
2019-04-14T01:53:01.751Z,94.98
2019-04-14T01:54:01.847Z,94.89
2019-04-14T01:55:02.894Z,94.89
2019-04-14T01:56:01.860Z,94.89
2019-04-14T01:57:02.472Z,94.98
2019-04-14T01:58:03.012Z,94.60
2019-04-14T01:59:02.187Z,94.70
2019-04-14T02:00:03.183Z,94.60
2019-04-14T02:01:02.031Z,94.70
2019-04-14T02:02:03.014Z,94.51
2019-04-14T02:03:02.201Z,94.51
2019-04-14T02:04:02.952Z,94.41
2019-04-14T02:05:02.169Z,94.60
2019-04-14T02:06:02.600Z,94.22
2019-04-14T02:07:02.237Z,94.60
2019-04-14T02:08:02.414Z,94.51
2019-04-14T02:09:03.266Z,94.32
2019-04-14T02:10:02.344Z,94.79
2019-04-14T02:11:03.011Z,94.41
2019-04-14T02:12:03.744Z,94.41
2019-04-14T02:13:02.816Z,94.03
2019-04-14T02:14:03.618Z,94.13
2019-04-14T02:15:02.882Z,94.60
2019-04-14T02:16:16.528Z,94.89
2019-04-14T02:17:04.443Z,94.32
2019-04-14T02:18:03.236Z,94.60
2019-04-14T02:19:02.667Z,94.41
2019-04-14T02:20:03.352Z,94.32
2019-04-14T02:21:02.731Z,94.32
2019-04-14T02:22:02.820Z,94.32
2019-04-14T02:23:04.029Z,94.41
2019-04-14T02:24:02.865Z,94.41
2019-04-14T02:25:03.606Z,94.70
2019-04-14T02:26:02.903Z,94.32
2019-04-14T02:27:03.479Z,95.17
2019-04-14T02:28:02.965Z,94.60
2019-04-14T02:29:03.630Z,94.98
2019-04-14T02:30:03.845Z,95.07
2019-04-14T02:31:18.026Z,94.89
2019-04-14T02:33:37.755Z,94.98
2019-04-14T02:34:34.321Z,94.89
2019-04-14T02:35:40.712Z,94.98
2019-04-14T02:36:35.744Z,94.70
2019-04-14T02:37:26.358Z,94.98
2019-04-14T02:38:45.300Z,94.60
2019-04-14T02:39:35.903Z,94.98
2019-04-14T02:40:37.093Z,95.17
2019-04-14T02:43:39.626Z,95.17
2019-04-14T02:44:32.477Z,94.98
2019-04-14T02:45:35.111Z,94.98
2019-04-14T02:46:34.445Z,94.70
2019-04-14T02:50:24.491Z,94.98
2019-04-14T02:51:38.498Z,94.98
2019-04-14T02:52:35.726Z,94.98
2019-04-14T02:53:32.579Z,94.41
2019-04-14T02:54:36.044Z,94.41
2019-04-14T02:55:37.967Z,94.98
2019-04-14T02:56:49.885Z,94.98
2019-04-14T02:57:33.941Z,94.98
2019-04-14T02:58:40.411Z,94.98
2019-04-14T02:59:29.097Z,95.17
2019-04-14T03:00:35.659Z,95.36
2019-04-14T03:03:35.635Z,94.79
2019-04-14T03:04:25.792Z,94.89
2019-04-14T03:05:26.096Z,94.98
2019-04-14T03:06:26.016Z,94.89
2019-04-14T03:07:30.264Z,94.60
2019-04-14T03:08:34.260Z,94.79
2019-04-14T03:09:37.956Z,94.98
2019-04-14T03:10:31.876Z,95.17
2019-04-14T03:11:34.506Z,94.89
2019-04-14T03:12:36.227Z,95.07
2019-04-14T03:13:35.082Z,94.89
2019-04-14T03:14:30.767Z,95.17
2019-04-14T03:15:31.846Z,94.89
2019-04-14T03:16:43.631Z,95.07
2019-04-14T03:17:29.145Z,95.83
2019-04-14T03:19:38.661Z,94.89
2019-04-14T03:20:32.140Z,94.79
2019-04-14T03:21:34.803Z,94.98
2019-04-14T03:23:34.869Z,95.64
2019-04-14T03:24:31.597Z,95.64
2019-04-14T03:25:22.514Z,95.64
2019-04-14T03:26:26.171Z,95.54
2019-04-14T03:27:43.861Z,95.54
2019-04-14T03:28:36.524Z,95.64
2019-04-14T03:29:46.157Z,95.17
2019-04-14T03:31:03.952Z,94.98
2019-04-14T03:31:53.726Z,95.36
2019-04-14T03:32:53.140Z,94.79
2019-04-14T03:34:39.254Z,95.07
2019-04-14T03:36:05.814Z,95.17
2019-04-14T03:37:45.265Z,94.79
2019-04-14T03:38:34.462Z,94.65
2019-04-14T03:39:44.227Z,94.89
2019-04-14T03:40:34.302Z,94.65
2019-04-14T03:41:48.905Z,95.03
2019-04-14T03:42:37.859Z,95.12
2019-04-14T03:43:30.790Z,94.74
2019-04-14T03:44:37.596Z,95.12
2019-04-14T03:45:43.322Z,94.89
2019-04-14T03:47:38.043Z,95.68
2019-04-14T03:49:37.456Z,95.40
2019-04-14T03:50:31.448Z,95.12
2019-04-14T03:52:41.618Z,95.26
2019-04-14T03:53:46.078Z,95.50
2019-04-14T03:54:27.330Z,95.59
2019-04-14T03:55:20.465Z,95.40
2019-04-14T03:56:10.384Z,95.59
2019-04-14T03:57:06.272Z,95.50
2019-04-14T03:58:08.226Z,95.21
2019-04-14T03:59:06.475Z,95.78
2019-04-14T04:00:07.360Z,95.21
2019-04-14T04:01:06.228Z,95.12
2019-04-14T04:02:07.431Z,95.59
2019-04-14T04:03:06.393Z,95.59
2019-04-14T04:04:07.403Z,95.31
2019-04-14T04:05:06.479Z,95.31
2019-04-14T04:06:07.462Z,95.78
2019-04-14T04:07:06.393Z,95.50
2019-04-14T04:08:07.171Z,95.59
2019-04-14T04:09:06.451Z,95.97
2019-04-14T04:10:07.250Z,95.50
2019-04-14T04:11:06.521Z,95.21
2019-04-14T04:12:07.468Z,95.40
2019-04-14T04:13:06.589Z,95.50
2019-04-14T04:14:07.427Z,95.21
2019-04-14T04:15:06.689Z,95.50
2019-04-14T04:16:07.161Z,95.40
2019-04-14T04:17:07.866Z,95.40
2019-04-14T04:18:07.028Z,94.74
2019-04-14T04:19:12.968Z,94.84
2019-04-14T04:20:06.840Z,95.50
2019-04-14T04:21:07.395Z,95.21
2019-04-14T04:22:06.899Z,95.50
2019-04-14T04:23:07.409Z,95.50
2019-04-14T04:24:06.966Z,95.21
2019-04-14T04:25:07.326Z,95.59
2019-04-14T04:26:08.180Z,95.40
2019-04-14T04:27:07.069Z,95.40
2019-04-14T04:28:08.041Z,95.40
2019-04-14T04:29:07.141Z,95.40
2019-04-14T04:30:08.080Z,95.40
2019-04-14T04:31:07.209Z,95.59
2019-04-14T04:32:07.818Z,95.59
2019-04-14T04:33:07.283Z,95.40
2019-04-14T04:34:07.635Z,95.50
2019-04-14T04:35:08.477Z,95.59
2019-04-14T04:36:07.425Z,94.93
2019-04-14T04:37:08.261Z,94.84
2019-04-14T04:38:07.448Z,94.84
2019-04-14T04:39:08.280Z,95.03
2019-04-14T04:40:07.515Z,95.21
2019-04-14T04:41:08.037Z,95.50
2019-04-14T04:42:07.584Z,95.12
2019-04-14T04:43:07.980Z,95.50
2019-04-14T04:44:07.652Z,95.40
2019-04-14T04:45:08.148Z,95.21
2019-04-14T04:46:07.726Z,95.59
2019-04-14T04:47:07.826Z,95.50
2019-04-14T04:48:08.913Z,95.59
2019-04-14T04:49:14.466Z,95.40
2019-04-14T04:50:08.605Z,95.40
2019-04-14T04:51:07.893Z,95.50
2019-04-14T04:52:11.094Z,95.50
2019-04-14T04:53:09.084Z,95.40
2019-04-14T04:54:08.212Z,95.40
2019-04-14T04:55:08.866Z,95.50
2019-04-14T04:56:08.080Z,95.59
2019-04-14T04:57:08.884Z,95.50
2019-04-14T04:58:08.131Z,95.31
2019-04-14T04:59:08.172Z,95.21
2019-04-14T05:00:09.237Z,95.40
2019-04-14T05:01:08.237Z,95.21
2019-04-14T05:02:09.074Z,95.40
2019-04-14T05:03:08.306Z,95.40
2019-04-14T05:04:09.062Z,95.40
2019-04-14T05:05:08.372Z,95.78
2019-04-14T05:06:09.100Z,95.31
2019-04-14T05:07:09.789Z,95.31
2019-04-14T05:08:08.693Z,95.21
2019-04-14T05:09:08.511Z,95.50
2019-04-14T05:10:08.871Z,95.31
2019-04-14T05:11:09.667Z,95.50
2019-04-14T05:12:09.050Z,95.21
2019-04-14T05:13:09.394Z,95.40
2019-04-14T05:14:08.807Z,95.59
2019-04-14T05:15:09.454Z,95.50
2019-04-14T05:16:08.750Z,95.31
2019-04-14T05:17:08.785Z,95.45
2019-04-14T05:18:09.107Z,95.54
2019-04-14T05:19:18.553Z,95.73
2019-04-14T05:20:09.558Z,95.36
2019-04-14T05:21:10.276Z,96.11
2019-04-14T05:22:09.266Z,96.11
2019-04-14T05:23:10.132Z,95.92
2019-04-14T05:24:09.336Z,95.92
2019-04-14T05:25:10.068Z,96.21
2019-04-14T05:26:09.306Z,96.30
2019-04-14T05:27:10.020Z,95.73
2019-04-14T05:28:09.178Z,96.21
2019-04-14T05:29:10.003Z,95.83
2019-04-14T05:30:09.248Z,96.02
2019-04-14T05:31:09.794Z,95.83
2019-04-14T05:32:09.304Z,95.64
2019-04-14T05:33:09.636Z,95.83
2019-04-14T05:34:09.371Z,95.45
2019-04-14T05:35:09.733Z,95.07
2019-04-14T05:36:10.640Z,95.17
2019-04-14T05:37:09.475Z,95.54
2019-04-14T05:38:10.500Z,95.92
2019-04-14T05:39:09.544Z,96.21
2019-04-14T05:40:10.299Z,95.73
2019-04-14T05:41:09.612Z,95.92
2019-04-14T05:42:17.180Z,95.83
2019-04-14T05:43:09.684Z,95.92
2019-04-14T05:44:09.981Z,95.92
2019-04-14T05:45:09.758Z,95.83
2019-04-14T05:46:09.930Z,96.30
2019-04-14T05:47:10.994Z,96.11
2019-04-14T05:48:09.855Z,96.26
2019-04-14T05:49:12.076Z,95.78
2019-04-14T05:50:09.934Z,96.16
2019-04-14T05:51:11.020Z,96.26
2019-04-14T05:52:10.010Z,96.35
2019-04-14T05:53:11.013Z,96.35
2019-04-14T05:54:10.067Z,96.26
2019-04-14T05:55:11.189Z,96.16
2019-04-14T05:56:10.133Z,95.88
2019-04-14T05:57:11.182Z,95.88
2019-04-14T05:58:10.202Z,96.35
2019-04-14T05:59:11.281Z,96.16
2019-04-14T06:00:10.435Z,96.26
2019-04-14T06:01:11.331Z,96.35
2019-04-14T06:02:11.503Z,96.45
2019-04-14T06:03:10.417Z,95.97
2019-04-14T06:04:11.408Z,96.16
2019-04-14T06:05:12.634Z,96.07
2019-04-14T06:06:10.482Z,96.16
2019-04-14T06:07:10.535Z,97.11
2019-04-14T06:08:10.552Z,96.97
2019-04-14T06:09:10.590Z,96.97
2019-04-14T06:10:10.629Z,96.50
2019-04-14T06:11:10.658Z,97.34
2019-04-14T06:12:10.692Z,97.16
2019-04-14T06:13:11.853Z,97.06
2019-04-14T06:14:10.771Z,97.53
2019-04-14T06:15:10.796Z,96.97
2019-04-14T06:16:10.833Z,96.88
2019-04-14T06:17:10.873Z,96.88
2019-04-14T06:18:10.902Z,96.97
2019-04-14T06:19:10.940Z,97.53
2019-04-14T06:20:10.978Z,97.53
2019-04-14T06:21:11.008Z,97.72
2019-04-14T06:22:11.054Z,97.82
2019-04-14T06:23:11.084Z,97.82
2019-04-14T06:24:11.117Z,97.87
2019-04-14T06:25:11.155Z,97.87
2019-04-14T06:26:11.193Z,98.15
2019-04-14T06:27:11.219Z,97.77
2019-04-14T06:28:11.254Z,98.06
2019-04-14T06:29:11.292Z,97.87
2019-04-14T06:30:11.326Z,97.77
2019-04-14T06:31:11.363Z,97.87
2019-04-14T06:32:11.397Z,97.58
2019-04-14T06:33:11.431Z,97.58
2019-04-14T06:34:11.470Z,98.15
2019-04-14T06:35:11.507Z,97.77
2019-04-14T06:36:11.539Z,97.39
2019-04-14T06:37:11.575Z,97.96
2019-04-14T06:38:11.615Z,97.39
2019-04-14T06:39:11.646Z,98.15
2019-04-14T06:40:11.681Z,98.06
2019-04-14T06:41:11.716Z,97.11
2019-04-14T06:42:11.754Z,97.87
2019-04-14T06:43:11.839Z,97.58
2019-04-14T06:44:11.823Z,97.30
2019-04-14T06:45:11.862Z,97.35
2019-04-14T06:46:11.895Z,97.44
2019-04-14T06:47:11.937Z,97.63
2019-04-14T06:48:11.970Z,97.73
2019-04-14T06:49:12.007Z,97.44
2019-04-14T06:50:12.039Z,97.16
2019-04-14T06:51:12.079Z,97.25
2019-04-14T06:52:12.115Z,97.82
2019-04-14T06:53:12.145Z,97.92
2019-04-14T06:54:12.180Z,97.82
2019-04-14T06:55:12.222Z,97.44
2019-04-14T06:56:12.252Z,98.68
2019-04-14T06:57:12.289Z,97.92
2019-04-14T06:58:12.343Z,98.72
2019-04-14T06:59:12.361Z,97.82
2019-04-14T07:00:12.397Z,98.06
2019-04-14T07:01:12.434Z,97.97
2019-04-14T07:02:12.470Z,97.78
2019-04-14T07:03:12.505Z,98.25
2019-04-14T07:04:12.549Z,97.49
2019-04-14T07:05:12.576Z,97.49
2019-04-14T07:06:12.614Z,97.21
2019-04-14T07:07:12.653Z,97.49
2019-04-14T07:08:12.686Z,97.40
2019-04-14T07:09:12.721Z,97.59
2019-04-14T07:10:12.761Z,97.68
2019-04-14T07:11:12.798Z,97.59
2019-04-14T07:12:12.883Z,97.21
2019-04-14T07:13:13.974Z,97.21
2019-04-14T07:14:12.906Z,97.45
2019-04-14T07:15:12.944Z,97.35
2019-04-14T07:16:12.991Z,97.54
2019-04-14T07:17:13.015Z,97.64
2019-04-14T07:18:13.051Z,97.35
2019-04-14T07:19:13.091Z,97.92
2019-04-14T07:20:13.125Z,97.35
2019-04-14T07:21:13.163Z,97.64
2019-04-14T07:22:13.241Z,97.35
2019-04-14T07:23:13.231Z,97.54
2019-04-14T07:24:13.287Z,97.26
2019-04-14T07:25:13.304Z,97.73
2019-04-14T07:26:13.343Z,97.07
2019-04-14T07:27:13.378Z,96.88
2019-04-14T07:28:13.414Z,97.26
2019-04-14T07:29:14.832Z,96.50
2019-04-14T07:30:13.488Z,96.12
2019-04-14T07:31:13.541Z,95.55
2019-04-14T07:32:13.565Z,95.65
2019-04-14T07:33:13.606Z,95.65
2019-04-14T07:34:13.634Z,95.60
2019-04-14T07:35:13.671Z,95.60
2019-04-14T07:36:13.717Z,95.69
2019-04-14T07:37:13.752Z,95.50
2019-04-14T07:38:13.780Z,94.84
2019-04-14T07:39:13.820Z,94.84
2019-04-14T07:40:13.860Z,95.12
2019-04-14T07:41:13.892Z,95.03
2019-04-14T07:42:13.928Z,95.03
2019-04-14T07:43:14.117Z,94.37
2019-04-14T07:44:15.107Z,94.37
2019-04-14T07:45:14.037Z,94.27
2019-04-14T07:46:14.083Z,94.84
2019-04-14T07:47:14.110Z,93.80
2019-04-14T07:48:14.152Z,94.08
2019-04-14T07:49:14.185Z,94.74
2019-04-14T07:50:15.145Z,94.32
2019-04-14T07:51:14.258Z,94.42
2019-04-14T07:52:14.294Z,94.08
2019-04-14T07:53:14.330Z,93.70
2019-04-14T07:54:14.369Z,94.56
2019-04-14T07:55:14.425Z,94.13
2019-04-14T07:56:14.447Z,94.32
2019-04-14T07:57:14.479Z,94.42
2019-04-14T07:58:14.517Z,94.42
2019-04-14T07:59:14.553Z,94.42
2019-04-14T08:00:14.591Z,93.84
2019-04-14T08:01:14.625Z,94.23
2019-04-14T08:02:14.664Z,93.27
2019-04-14T08:03:14.700Z,93.75
2019-04-14T08:04:14.738Z,94.13
2019-04-14T08:05:14.781Z,94.42
2019-04-14T08:06:14.826Z,93.94
2019-04-14T08:07:14.855Z,94.03
2019-04-14T08:08:14.885Z,92.99
2019-04-14T08:09:14.922Z,93.27
2019-04-14T08:10:14.958Z,93.46
2019-04-14T08:11:14.996Z,93.46
2019-04-14T08:12:15.038Z,93.18
2019-04-14T08:13:15.073Z,93.27
2019-04-14T08:14:15.160Z,93.27
2019-04-14T08:15:15.144Z,93.37
2019-04-14T08:16:15.185Z,92.80
2019-04-14T08:17:15.224Z,93.46
2019-04-14T08:18:15.259Z,93.46
2019-04-14T08:19:15.300Z,93.41
2019-04-14T08:20:26.963Z,93.32
2019-04-14T08:21:15.365Z,92.75
2019-04-14T08:22:15.405Z,93.41
2019-04-14T08:23:15.447Z,92.75
2019-04-14T08:24:15.478Z,91.89
2019-04-14T08:25:15.518Z,92.23
2019-04-14T08:26:15.552Z,92.56
2019-04-14T08:27:15.589Z,92.28
2019-04-14T08:28:15.624Z,93.41
2019-04-14T08:29:15.668Z,92.37
2019-04-14T08:30:15.700Z,92.47
2019-04-14T08:31:15.737Z,92.09
2019-04-14T08:32:15.774Z,92.28
2019-04-14T08:33:15.811Z,92.37
2019-04-14T08:34:15.852Z,92.18
2019-04-14T08:35:15.894Z,92.42
2019-04-14T08:36:15.934Z,92.32
2019-04-14T08:37:15.961Z,92.32
2019-04-14T08:38:16.000Z,92.42
2019-04-14T08:39:16.036Z,90.99
2019-04-14T08:40:16.224Z,90.23
2019-04-14T08:41:16.112Z,90.23
2019-04-14T08:42:16.152Z,91.56
2019-04-14T08:43:16.189Z,91.19
2019-04-14T08:44:16.223Z,92.42
2019-04-14T08:45:16.266Z,91.80
2019-04-14T08:46:16.300Z,90.71
2019-04-14T08:47:16.339Z,90.42
2019-04-14T08:48:16.375Z,90.23
2019-04-14T08:49:16.415Z,90.42
2019-04-14T08:50:16.471Z,90.52
2019-04-14T08:51:16.488Z,90.33
2019-04-14T08:52:16.543Z,89.95
2019-04-14T08:53:16.566Z,89.86
2019-04-14T08:54:16.609Z,89.86
2019-04-14T08:55:16.641Z,89.95
2019-04-14T08:56:16.677Z,89.67
2019-04-14T08:57:16.715Z,89.95
2019-04-14T08:58:16.755Z,90.37
2019-04-14T08:59:16.790Z,90.47
2019-04-14T09:00:16.830Z,90.47
2019-04-14T09:01:16.865Z,90.47
2019-04-14T09:02:16.905Z,89.90
2019-04-14T09:03:16.942Z,89.52
2019-04-14T09:04:16.982Z,88.57
2019-04-14T09:05:17.016Z,88.00
2019-04-14T09:06:17.056Z,87.81
2019-04-14T09:07:17.092Z,88.85
2019-04-14T09:08:17.129Z,88.19
2019-04-14T09:09:17.176Z,88.38
2019-04-14T09:10:17.218Z,87.90
2019-04-14T09:11:17.245Z,88.09
2019-04-14T09:12:17.283Z,88.09
2019-04-14T09:13:17.324Z,88.28
2019-04-14T09:14:17.363Z,87.81
2019-04-14T09:15:17.395Z,88.00
2019-04-14T09:16:17.499Z,88.09
2019-04-14T09:17:17.475Z,87.62
2019-04-14T09:18:17.509Z,87.62
2019-04-14T09:19:17.549Z,87.09
2019-04-14T09:20:17.592Z,86.90
2019-04-14T09:21:17.629Z,86.99
2019-04-14T09:22:17.662Z,86.90
2019-04-14T09:23:17.708Z,86.99
2019-04-14T09:24:17.750Z,86.61
2019-04-14T09:25:17.777Z,86.71
2019-04-14T09:26:17.820Z,86.99
2019-04-14T09:27:17.857Z,86.85
2019-04-14T09:28:17.892Z,86.57
2019-04-14T09:29:17.933Z,84.66
2019-04-14T09:30:17.979Z,85.71
2019-04-14T09:31:18.011Z,84.66
2019-04-14T09:32:18.044Z,84.52
2019-04-14T09:33:18.091Z,84.89
2019-04-14T09:34:18.137Z,83.75
2019-04-14T09:35:18.172Z,82.90
2019-04-14T09:36:18.199Z,82.80
2019-04-14T09:37:18.240Z,82.14
2019-04-14T09:38:18.276Z,82.08
2019-04-14T09:39:18.318Z,80.80
2019-04-14T09:40:18.358Z,81.85
2019-04-14T09:41:18.394Z,81.09
2019-04-14T09:42:18.434Z,80.42
2019-04-14T09:43:18.477Z,80.71
2019-04-14T09:44:18.512Z,80.90
2019-04-14T09:45:18.558Z,81.23
2019-04-14T09:46:18.590Z,80.36
2019-04-14T09:47:18.637Z,79.89
2019-04-14T09:48:18.669Z,79.51
2019-04-14T09:49:18.713Z,79.99
2019-04-14T09:50:18.748Z,79.41
2019-04-14T09:51:18.789Z,79.32
2019-04-14T09:52:18.828Z,78.46
2019-04-14T09:53:18.874Z,78.56
2019-04-14T09:54:18.907Z,78.65
2019-04-14T09:55:18.945Z,78.75
2019-04-14T09:56:18.986Z,78.56
2019-04-14T09:57:19.035Z,78.27
2019-04-14T09:58:19.072Z,79.22
2019-04-14T09:59:19.105Z,78.80
2019-04-14T10:00:19.153Z,79.32
2019-04-14T10:01:19.184Z,78.94
2019-04-14T10:02:19.226Z,78.94
2019-04-14T10:03:19.266Z,78.56
2019-04-14T10:04:19.304Z,78.65
2019-04-14T10:05:19.345Z,78.08
2019-04-14T10:06:19.383Z,79.03
2019-04-14T10:07:19.422Z,78.46
2019-04-14T10:08:19.464Z,78.75
2019-04-14T10:09:19.502Z,78.46
2019-04-14T10:10:19.559Z,78.56
2019-04-14T10:11:19.587Z,78.94
2019-04-14T10:12:19.623Z,78.56
2019-04-14T10:13:19.663Z,78.85
2019-04-14T10:14:19.709Z,78.56
2019-04-14T10:15:19.752Z,79.22
2019-04-14T10:16:19.782Z,78.56
2019-04-14T10:17:19.975Z,78.56
2019-04-14T10:18:19.863Z,79.13
2019-04-14T10:19:19.902Z,79.32
2019-04-14T10:20:19.941Z,78.65
2019-04-14T10:21:20.004Z,78.46
2019-04-14T10:22:20.024Z,78.46
2019-04-14T10:23:20.063Z,78.31
2019-04-14T10:24:20.101Z,78.98
2019-04-14T10:25:20.152Z,78.88
2019-04-14T10:26:20.190Z,77.45
2019-04-14T10:27:20.229Z,77.55
2019-04-14T10:28:20.268Z,78.98
2019-04-14T10:29:20.303Z,79.13
2019-04-14T10:30:20.357Z,78.46
2019-04-14T10:31:20.394Z,78.46
2019-04-14T10:32:20.437Z,78.27
2019-04-14T10:33:20.472Z,79.03
2019-04-14T10:34:20.508Z,79.47
2019-04-14T10:35:20.544Z,79.38
2019-04-14T10:36:20.584Z,80.71
2019-04-14T10:37:20.625Z,80.52
2019-04-14T10:38:20.664Z,80.76
2019-04-14T10:39:20.706Z,81.24
2019-04-14T10:40:20.760Z,81.52
2019-04-14T10:41:20.783Z,81.33
2019-04-14T10:42:20.824Z,81.71
2019-04-14T10:43:20.863Z,82.28
2019-04-14T10:44:20.906Z,82.42
2019-04-14T10:45:20.944Z,81.62
2019-04-14T10:46:20.983Z,82.38
2019-04-14T10:47:21.028Z,81.90
2019-04-14T10:48:21.066Z,81.90
2019-04-14T10:49:21.100Z,82.00
2019-04-14T10:50:30.651Z,83.14
2019-04-14T10:51:29.966Z,82.67
2019-04-14T10:52:21.226Z,82.67
2019-04-14T10:53:21.259Z,82.57
2019-04-14T10:54:21.297Z,82.76
2019-04-14T10:55:21.336Z,83.33
2019-04-14T10:56:21.385Z,84.00
2019-04-14T10:57:21.416Z,84.00
2019-04-14T10:58:21.462Z,84.47
2019-04-14T10:59:21.500Z,84.47
2019-04-14T11:00:21.532Z,84.19
2019-04-14T11:01:21.572Z,83.90
2019-04-14T11:02:21.612Z,84.00
2019-04-14T11:03:21.648Z,84.19
2019-04-14T11:04:21.689Z,84.09
2019-04-14T11:05:21.737Z,84.38
2019-04-14T11:06:21.770Z,84.24
2019-04-14T11:07:21.806Z,84.62
2019-04-14T11:08:21.847Z,84.43
2019-04-14T11:09:21.889Z,84.43
2019-04-14T11:10:21.927Z,84.91
2019-04-14T11:11:21.962Z,84.91
2019-04-14T11:12:22.000Z,84.62
2019-04-14T11:13:22.041Z,85.19
2019-04-14T11:14:22.131Z,85.10
2019-04-14T11:15:22.121Z,85.95
2019-04-14T11:16:22.164Z,85.86
2019-04-14T11:17:22.203Z,86.05
2019-04-14T11:18:22.234Z,86.71
2019-04-14T11:19:22.280Z,86.71
2019-04-14T11:20:22.320Z,86.76
2019-04-14T11:21:22.365Z,86.66
2019-04-14T11:22:22.391Z,86.18
2019-04-14T11:23:22.439Z,85.80
2019-04-14T11:24:24.052Z,85.80
2019-04-14T11:25:22.511Z,85.80
2019-04-14T11:26:22.544Z,85.71
2019-04-14T11:27:22.587Z,85.14
2019-04-14T11:28:22.628Z,85.42
2019-04-14T11:29:22.670Z,85.71
2019-04-14T11:30:22.701Z,85.90
2019-04-14T11:31:22.740Z,85.99
2019-04-14T11:32:22.784Z,86.18
2019-04-14T11:33:22.817Z,85.80
2019-04-14T11:34:22.857Z,86.05
2019-04-14T11:35:22.902Z,86.14
2019-04-14T11:36:22.935Z,86.05
2019-04-14T11:37:22.980Z,86.14
2019-04-14T11:38:23.011Z,86.90
2019-04-14T11:39:23.057Z,87.09
2019-04-14T11:40:23.087Z,86.90
2019-04-14T11:41:23.146Z,86.90
2019-04-14T11:42:23.171Z,87.38
2019-04-14T11:43:23.213Z,87.28
2019-04-14T11:44:23.265Z,87.85
2019-04-14T11:45:23.305Z,87.66
2019-04-14T11:46:23.321Z,87.66
2019-04-14T11:47:23.469Z,88.04
2019-04-14T11:48:23.405Z,87.76
2019-04-14T11:49:23.440Z,87.95
2019-04-14T11:50:23.479Z,88.04
2019-04-14T11:51:23.529Z,88.23
2019-04-14T11:52:23.561Z,88.23
2019-04-14T11:53:23.608Z,88.23
2019-04-14T11:54:23.640Z,88.13
2019-04-14T11:55:23.668Z,87.95
2019-04-14T11:56:23.708Z,88.13
2019-04-14T11:57:23.753Z,88.71
2019-04-14T11:58:23.792Z,88.71
2019-04-14T11:59:23.826Z,88.04
2019-04-14T12:00:23.866Z,88.04
2019-04-14T12:01:23.918Z,88.23
2019-04-14T12:02:23.968Z,88.04
2019-04-14T12:03:23.988Z,88.61
2019-04-14T12:04:24.026Z,88.52
2019-04-14T12:05:24.057Z,88.47
2019-04-14T12:06:24.097Z,88.47
2019-04-14T12:07:24.134Z,88.42
2019-04-14T12:08:24.171Z,89.09
2019-04-14T12:09:24.215Z,89.00
2019-04-14T12:10:24.247Z,89.47
2019-04-14T12:11:24.284Z,89.00
2019-04-14T12:12:24.323Z,88.42
2019-04-14T12:13:24.362Z,89.28
2019-04-14T12:14:24.401Z,88.67
2019-04-14T12:15:24.439Z,89.04
2019-04-14T12:16:24.477Z,89.00
2019-04-14T12:17:24.516Z,89.00
2019-04-14T12:18:24.555Z,88.67
2019-04-14T12:19:24.641Z,89.56
2019-04-14T12:20:24.630Z,89.56
2019-04-14T12:21:24.668Z,89.33
2019-04-14T12:22:24.708Z,89.85
2019-04-14T12:23:24.747Z,89.37
2019-04-14T12:24:24.800Z,89.61
2019-04-14T12:25:24.821Z,89.94
2019-04-14T12:26:24.874Z,89.94
2019-04-14T12:27:24.904Z,89.28
2019-04-14T12:28:26.204Z,89.28
2019-04-14T12:29:26.034Z,89.09
2019-04-14T12:30:25.026Z,88.71
2019-04-14T12:31:25.080Z,89.00
2019-04-14T12:32:25.100Z,88.52
2019-04-14T12:33:25.137Z,88.61
2019-04-14T12:34:25.190Z,88.04
2019-04-14T12:35:25.213Z,88.04
2019-04-14T12:36:25.252Z,88.71
2019-04-14T12:37:25.343Z,89.18
2019-04-14T12:38:25.329Z,89.14
2019-04-14T12:39:25.380Z,88.85
2019-04-14T12:40:25.404Z,88.18
2019-04-14T12:41:26.576Z,87.90
2019-04-14T12:42:25.489Z,88.46
2019-04-14T12:43:25.535Z,88.66
2019-04-14T12:44:25.568Z,87.80
2019-04-14T12:45:25.593Z,86.94
2019-04-14T12:46:25.691Z,86.94
2019-04-14T12:47:25.690Z,86.94
2019-04-14T12:48:25.720Z,87.52
2019-04-14T12:49:25.755Z,86.94
2019-04-14T12:50:25.795Z,86.85
2019-04-14T12:51:25.845Z,86.57
2019-04-14T12:52:25.863Z,87.52
2019-04-14T12:53:25.973Z,86.76
2019-04-14T12:54:25.950Z,86.85
2019-04-14T12:55:25.983Z,86.66
2019-04-14T12:56:26.029Z,86.18
2019-04-14T12:57:26.068Z,86.47
2019-04-14T12:58:26.118Z,86.66
2019-04-14T12:59:26.141Z,86.38
2019-04-14T13:00:26.181Z,86.09
2019-04-14T13:01:26.215Z,86.76
2019-04-14T13:02:26.258Z,86.38
2019-04-14T13:03:26.304Z,85.99
2019-04-14T13:04:26.353Z,85.90
2019-04-14T13:05:26.377Z,86.38
2019-04-14T13:06:26.416Z,86.76
2019-04-14T13:07:26.449Z,86.90
2019-04-14T13:08:26.500Z,86.42